Halfway's Hourly Summary for Saturday, July 7, 2018
Hour Temp
(f)
RH
(%)
Solar Rad.
(MJ/m2)
Rainfall
(in)
Wind
(mph)
7/7/2018 12:00 AM 67 89 0 0 4.78
7/7/2018 1:00 AM 67 89 0 0 4.88
7/7/2018 2:00 AM 66 90 0 0 4.14
7/7/2018 3:00 AM 66 88 0 0 3.81
7/7/2018 4:00 AM 66 88 0 0 2.59
7/7/2018 5:00 AM 66 89 0 0 2.53
7/7/2018 6:00 AM 66 88 0 0 3.5
7/7/2018 7:00 AM 66 88 0.01 0 4.4
7/7/2018 8:00 AM 66 89 0.09 0 4.74
7/7/2018 9:00 AM 67 88 0.23 0 4.48
7/7/2018 10:00 AM 68 83 0.6 0 4.23
7/7/2018 11:00 AM 71 74 1.26 0 3.76
7/7/2018 12:00 PM 75 65 1.91 0 3.42
7/7/2018 1:00 PM 78 57 2.38 0 3.18
7/7/2018 2:00 PM 81 51 3.89 0 4.04
7/7/2018 3:00 PM 83 45 3.43 0 3.74
7/7/2018 4:00 PM 83 38 1.94 0 4.84
7/7/2018 5:00 PM 83 37 1.05 0 9.55
7/7/2018 6:00 PM 82 40 1.06 0 7.96
7/7/2018 7:00 PM 84 38 1.77 0 10.33
7/7/2018 8:00 PM 82 44 0.98 0 9
7/7/2018 9:00 PM 79 48 0.19 0 6.14
7/7/2018 10:00 PM 75 62 0 0 3.8
7/7/2018 11:00 PM 72 66 0 0 3.21
Data Summary 73 68 20.79 0.00 4.88